createdAt,value
2018-10-11T00:01:48.142Z,19.10
2018-10-11T00:03:52.679Z,20.93
2018-10-11T00:05:57.155Z,20.87
2018-10-11T00:08:01.555Z,22.63
2018-10-11T00:10:07.525Z,20.40
2018-10-11T00:12:11.943Z,20.47
2018-10-11T00:14:16.207Z,20.37
2018-10-11T00:16:20.590Z,18.90
2018-10-11T00:18:24.771Z,24.37
2018-10-11T00:20:29.085Z,19.67
2018-10-11T00:22:33.720Z,20.60
2018-10-11T00:24:38.124Z,21.57
2018-10-11T00:26:42.552Z,20.90
2018-10-11T00:28:46.861Z,19.47
2018-10-11T00:33:28.993Z,25.20
2018-10-11T00:35:33.349Z,20.63
2018-10-11T00:37:37.540Z,25.37
2018-10-11T00:39:41.892Z,30.33
2018-10-11T00:41:46.195Z,26.70
2018-10-11T00:43:50.703Z,19.20
2018-10-11T00:45:55.050Z,20.60
2018-10-11T00:47:59.554Z,19.60
2018-10-11T00:50:03.845Z,21.20
2018-10-11T00:52:08.480Z,22.30
2018-10-11T00:54:12.797Z,23.43
2018-10-11T00:56:17.202Z,18.60
2018-10-11T00:58:21.546Z,19.83
2018-10-11T01:00:25.842Z,24.73
2018-10-11T01:02:30.339Z,19.30
2018-10-11T01:04:34.681Z,21.00
2018-10-11T01:06:39.169Z,19.90
2018-10-11T01:08:43.473Z,23.10
2018-10-11T01:10:47.759Z,20.87
2018-10-11T01:12:52.029Z,20.90
2018-10-11T01:14:56.283Z,19.05
2018-10-11T01:17:00.686Z,21.80
2018-10-11T01:19:04.961Z,18.67
2018-10-11T01:21:09.523Z,22.60
2018-10-11T01:23:13.917Z,21.20
2018-10-11T01:25:18.078Z,23.77
2018-10-11T01:27:22.488Z,20.03
2018-10-11T01:29:26.943Z,21.50
2018-10-11T01:31:31.174Z,21.43
2018-10-11T01:33:35.574Z,22.07
2018-10-11T01:35:39.876Z,21.45
2018-10-11T01:37:44.416Z,24.53
2018-10-11T01:39:48.653Z,28.37
2018-10-11T01:41:53.035Z,27.53
2018-10-11T01:43:57.251Z,21.70
2018-10-11T01:46:01.578Z,24.03
2018-10-11T01:48:06.027Z,29.60
2018-10-11T01:50:10.320Z,18.87
2018-10-11T01:52:14.935Z,22.63
2018-10-11T01:54:19.275Z,23.63
2018-10-11T01:56:23.444Z,22.07
2018-10-11T01:58:27.771Z,21.87
2018-10-11T02:00:32.186Z,23.97
2018-10-11T02:02:36.248Z,22.73
2018-10-11T02:04:40.620Z,25.60
2018-10-11T02:06:45.055Z,21.90
2018-10-11T02:08:49.366Z,21.33
2018-10-11T02:10:53.762Z,23.60
2018-10-11T02:12:59.053Z,23.13
2018-10-11T02:15:04.454Z,20.87
2018-10-11T02:17:08.868Z,22.30
2018-10-11T02:19:13.145Z,23.37
2018-10-11T02:21:17.588Z,19.90
2018-10-11T02:23:21.998Z,23.20
2018-10-11T02:25:26.539Z,19.73
2018-10-11T02:27:30.806Z,17.87
2018-10-11T02:29:35.151Z,20.80
2018-10-11T02:31:39.525Z,21.67
2018-10-11T02:33:43.907Z,23.67
2018-10-11T02:35:48.229Z,19.12
2018-10-11T02:37:52.510Z,22.67
2018-10-11T02:39:57.195Z,20.63
2018-10-11T02:42:01.530Z,22.00
2018-10-11T02:44:05.985Z,21.13
2018-10-11T02:46:10.391Z,23.80
2018-10-11T02:48:14.598Z,18.50
2018-10-11T02:50:18.910Z,15.60
2018-10-11T02:52:23.261Z,20.60
2018-10-11T02:54:27.646Z,20.90
2018-10-11T02:56:31.976Z,26.30
2018-10-11T02:58:47.404Z,21.93
2018-10-11T03:00:52.027Z,21.57
2018-10-11T03:02:56.923Z,27.33
2018-10-11T03:05:01.101Z,20.08
2018-10-11T03:07:07.563Z,22.97
2018-10-11T03:09:11.891Z,20.87
2018-10-11T03:11:16.485Z,21.07
2018-10-11T03:13:20.929Z,18.40
2018-10-11T03:15:25.326Z,19.03
2018-10-11T03:17:29.755Z,19.87
2018-10-11T03:19:34.031Z,21.23
2018-10-11T03:21:38.405Z,22.60
2018-10-11T03:23:42.609Z,19.10
2018-10-11T03:25:47.189Z,19.10
2018-10-11T03:27:51.405Z,22.57
2018-10-11T03:29:55.760Z,26.00
2018-10-11T03:32:00.073Z,24.53
2018-10-11T03:34:04.540Z,25.23
2018-10-11T03:36:08.906Z,24.07
2018-10-11T03:38:13.581Z,18.03
2018-10-11T03:40:17.824Z,18.67
2018-10-11T03:42:22.164Z,19.10
2018-10-11T03:44:26.957Z,22.27
2018-10-11T03:46:31.365Z,18.50
2018-10-11T03:48:35.872Z,17.07
2018-10-11T03:50:40.258Z,16.70
2018-10-11T03:52:44.461Z,20.97
2018-10-11T03:54:48.760Z,16.77
2018-10-11T03:56:53.188Z,19.90
2018-10-11T03:58:57.690Z,20.50
2018-10-11T04:01:02.015Z,23.43
2018-10-11T04:03:06.318Z,23.05
2018-10-11T04:05:10.718Z,19.03
2018-10-11T04:07:15.048Z,19.77
2018-10-11T04:09:19.642Z,22.43
2018-10-11T04:11:23.945Z,28.53
2018-10-11T04:13:28.226Z,18.53
2018-10-11T04:15:32.564Z,22.10
2018-10-11T04:17:36.796Z,24.57
2018-10-11T04:19:41.118Z,25.57
2018-10-11T04:21:45.322Z,25.10
2018-10-11T04:23:49.627Z,25.13
2018-10-11T04:25:54.045Z,20.60
2018-10-11T04:27:58.274Z,27.60
2018-10-11T04:30:02.665Z,21.30
2018-10-11T04:32:07.137Z,21.80
2018-10-11T04:34:11.885Z,23.90
2018-10-11T04:36:16.268Z,21.60
2018-10-11T04:38:20.693Z,21.17
2018-10-11T04:40:25.046Z,21.55
2018-10-11T04:42:29.621Z,22.10
2018-10-11T04:44:36.428Z,18.03
2018-10-11T04:46:40.967Z,23.40
2018-10-11T04:48:45.251Z,23.73
2018-10-11T04:50:49.560Z,19.40
2018-10-11T04:52:53.885Z,22.43
2018-10-11T04:54:58.189Z,21.10
2018-10-11T04:57:02.205Z,23.87
2018-10-11T04:59:06.827Z,19.97
2018-10-11T05:01:11.220Z,20.83
2018-10-11T05:03:15.641Z,25.63
2018-10-11T05:05:20.018Z,27.50
2018-10-11T05:07:24.580Z,17.20
2018-10-11T05:09:28.959Z,20.77
2018-10-11T05:11:33.369Z,24.10
2018-10-11T05:13:40.882Z,19.60
2018-10-11T05:15:45.718Z,20.50
2018-10-11T05:17:50.366Z,19.07
2018-10-11T05:19:54.789Z,22.13
2018-10-11T05:21:59.160Z,20.73
2018-10-11T05:24:03.627Z,21.43
2018-10-11T05:26:08.329Z,20.60
2018-10-11T05:28:12.820Z,30.07
2018-10-11T05:30:17.231Z,23.17
2018-10-11T05:32:23.209Z,22.07
2018-10-11T05:34:27.511Z,23.57
2018-10-11T05:36:31.546Z,24.27
2018-10-11T05:38:35.549Z,23.60
2018-10-11T05:40:39.777Z,19.85
2018-10-11T05:42:43.946Z,20.80
2018-10-11T05:44:48.123Z,22.80
2018-10-11T05:46:52.553Z,20.37
2018-10-11T05:48:57.585Z,22.20
2018-10-11T05:51:02.872Z,21.83
2018-10-11T05:53:07.714Z,26.60
2018-10-11T05:55:12.569Z,35.20
2018-10-11T05:57:17.040Z,20.60
2018-10-11T05:59:21.465Z,20.13
2018-10-11T06:01:25.890Z,24.40
2018-10-11T06:03:30.390Z,22.85
2018-10-11T06:05:34.678Z,20.97
2018-10-11T06:07:39.114Z,21.53
2018-10-11T06:09:43.623Z,22.00
2018-10-11T06:11:48.369Z,21.93
2018-10-11T06:13:52.770Z,21.73
2018-10-11T06:15:57.282Z,20.03
2018-10-11T06:18:01.720Z,21.37
2018-10-11T06:20:06.137Z,26.70
2018-10-11T06:22:10.410Z,21.30
2018-10-11T06:24:14.769Z,22.53
2018-10-11T06:26:19.190Z,23.13
2018-10-11T06:28:23.877Z,24.47
2018-10-11T06:30:29.000Z,23.80
2018-10-11T06:32:33.168Z,31.73
2018-10-11T06:34:37.605Z,26.97
2018-10-11T06:36:42.895Z,28.60
2018-10-11T06:38:47.373Z,25.23
2018-10-11T06:40:51.933Z,19.73
2018-10-11T06:42:56.455Z,23.57
2018-10-11T06:45:00.895Z,28.90
2018-10-11T06:47:05.104Z,20.20
2018-10-11T06:49:09.704Z,22.43
2018-10-11T06:51:14.255Z,21.47
2018-10-11T06:53:18.572Z,40.83
2018-10-11T06:55:22.995Z,24.57
2018-10-11T06:57:27.516Z,24.37
2018-10-11T06:59:31.987Z,24.20
2018-10-11T07:01:36.311Z,22.20
2018-10-11T07:03:40.830Z,21.90
2018-10-11T07:05:45.253Z,27.77
2018-10-11T07:07:50.046Z,22.73
2018-10-11T07:09:54.414Z,23.30
2018-10-11T07:12:01.428Z,19.87
2018-10-11T07:14:07.740Z,20.07
2018-10-11T07:16:12.466Z,25.40
2018-10-11T07:18:16.677Z,21.93
2018-10-11T07:20:21.086Z,26.93
2018-10-11T07:22:25.400Z,22.47
2018-10-11T07:24:29.798Z,19.30
2018-10-11T07:26:34.164Z,25.20
2018-10-11T07:28:38.532Z,24.00
2018-10-11T07:30:42.964Z,26.90
2018-10-11T07:32:47.324Z,25.20
2018-10-11T07:34:51.694Z,25.67
2018-10-11T07:36:55.904Z,21.50
2018-10-11T07:39:00.246Z,21.37
2018-10-11T07:41:04.881Z,23.22
2018-10-11T07:43:09.182Z,24.90
2018-10-11T07:45:13.487Z,22.00
2018-10-11T07:47:17.823Z,20.90
2018-10-11T07:49:22.207Z,27.80
2018-10-11T07:51:26.611Z,25.67
2018-10-11T07:53:31.044Z,34.83
2018-10-11T07:55:35.442Z,24.53
2018-10-11T07:57:39.880Z,22.73
2018-10-11T07:59:44.303Z,23.67
2018-10-11T08:01:48.747Z,26.27
2018-10-11T08:03:53.193Z,25.90
2018-10-11T08:05:57.393Z,19.70
2018-10-11T08:08:01.644Z,20.57
2018-10-11T08:10:06.238Z,18.43
2018-10-11T08:12:10.668Z,29.83
2018-10-11T08:14:15.170Z,20.23
2018-10-11T08:16:19.533Z,20.60
2018-10-11T08:18:23.851Z,19.60
2018-10-11T08:20:28.162Z,22.50
2018-10-11T08:22:32.605Z,27.37
2018-10-11T08:24:37.021Z,25.57
2018-10-11T08:26:41.668Z,24.43
2018-10-11T08:28:46.007Z,20.87
2018-10-11T08:30:50.448Z,22.40
2018-10-11T08:32:54.893Z,22.22
2018-10-11T08:34:59.269Z,32.70
2018-10-11T08:37:03.557Z,24.30
2018-10-11T08:39:10.079Z,20.77
2018-10-11T08:41:14.275Z,22.30
2018-10-11T08:43:18.566Z,20.90
2018-10-11T08:45:23.221Z,22.93
2018-10-11T08:47:27.429Z,24.83
2018-10-11T08:49:31.766Z,28.43
2018-10-11T08:51:35.978Z,22.00
2018-10-11T08:53:40.345Z,23.80
2018-10-11T08:55:44.758Z,21.53
2018-10-11T08:57:49.398Z,26.97
2018-10-11T08:59:53.813Z,26.30
2018-10-11T09:01:58.219Z,23.50
2018-10-11T09:04:02.797Z,23.90
2018-10-11T09:06:07.384Z,25.23
2018-10-11T09:08:11.720Z,27.67
2018-10-11T09:10:16.095Z,27.80
2018-10-11T09:12:20.421Z,23.80
2018-10-11T09:14:24.649Z,27.97
2018-10-11T09:16:28.942Z,24.77
2018-10-11T09:18:33.253Z,27.03
2018-10-11T09:20:37.684Z,25.13
2018-10-11T09:22:42.106Z,22.17
2018-10-11T09:24:46.534Z,24.37
2018-10-11T09:26:50.905Z,23.53
2018-10-11T09:28:55.372Z,21.97
2018-10-11T09:30:59.625Z,23.77
2018-10-11T09:33:03.892Z,22.83
2018-10-11T09:35:08.402Z,24.37
2018-10-11T09:37:12.799Z,24.47
2018-10-11T09:39:17.215Z,25.33
2018-10-11T09:41:21.557Z,26.13
2018-10-11T09:43:25.868Z,24.90
2018-10-11T09:45:30.189Z,29.37
2018-10-11T09:47:34.450Z,30.63
2018-10-11T09:49:38.740Z,23.20
2018-10-11T09:51:43.194Z,24.27
2018-10-11T09:53:47.414Z,21.83
2018-10-11T09:55:51.910Z,21.40
2018-10-11T09:57:56.373Z,25.20
2018-10-11T10:00:01.814Z,21.20
2018-10-11T10:02:06.717Z,21.33
2018-10-11T10:04:10.954Z,23.43
2018-10-11T10:06:15.185Z,25.33
2018-10-11T10:08:19.451Z,27.10
2018-10-11T10:10:23.903Z,23.93
2018-10-11T10:12:28.355Z,31.43
2018-10-11T10:14:32.732Z,23.20
2018-10-11T10:16:37.055Z,26.23
2018-10-11T10:18:41.323Z,24.73
2018-10-11T10:20:45.555Z,19.93
2018-10-11T10:22:49.911Z,20.53
2018-10-11T10:24:54.294Z,25.23
2018-10-11T10:26:58.760Z,23.07
2018-10-11T10:29:03.041Z,18.97
2018-10-11T10:31:07.384Z,23.17
2018-10-11T10:33:11.657Z,20.13
2018-10-11T10:35:16.096Z,23.23
2018-10-11T10:37:20.598Z,23.23
2018-10-11T10:39:25.112Z,22.27
2018-10-11T10:41:29.398Z,21.37
2018-10-11T10:43:33.746Z,15.83
2018-10-11T10:45:38.056Z,16.63
2018-10-11T10:47:42.450Z,17.53
2018-10-11T10:49:46.879Z,14.83
2018-10-11T10:51:51.493Z,17.07
2018-10-11T10:53:55.858Z,17.47
2018-10-11T10:56:00.109Z,20.60
2018-10-11T10:58:04.527Z,19.37
2018-10-11T11:00:09.318Z,18.53
2018-10-11T11:02:13.516Z,17.30
2018-10-11T11:04:18.024Z,21.73
2018-10-11T11:06:22.345Z,17.57
2018-10-11T11:08:26.650Z,22.53
2018-10-11T11:10:31.337Z,17.23
2018-10-11T11:12:35.806Z,18.87
2018-10-11T11:14:40.211Z,16.90
2018-10-11T11:16:44.895Z,21.17
2018-10-11T11:18:49.376Z,16.00
2018-10-11T11:20:53.629Z,21.33
2018-10-11T11:22:57.971Z,17.40
2018-10-11T11:25:02.344Z,14.00
2018-10-11T11:27:06.712Z,21.20
2018-10-11T11:29:11.011Z,23.30
2018-10-11T11:31:15.341Z,14.93
2018-10-11T11:33:19.743Z,17.02
2018-10-11T11:35:24.158Z,15.40
2018-10-11T11:37:28.713Z,15.50
2018-10-11T11:39:33.011Z,15.30
2018-10-11T11:41:37.236Z,17.27
2018-10-11T11:43:41.423Z,14.70
2018-10-11T11:45:45.794Z,24.83
2018-10-11T11:47:50.232Z,21.87
2018-10-11T11:49:54.689Z,20.07
2018-10-11T11:51:58.989Z,17.90
2018-10-11T11:54:03.518Z,17.07
2018-10-11T11:56:07.997Z,13.57
2018-10-11T11:58:12.343Z,14.13
2018-10-11T12:00:16.601Z,11.90
2018-10-11T12:02:20.897Z,13.67
2018-10-11T12:04:25.208Z,19.73
2018-10-11T12:06:29.496Z,16.00
2018-10-11T12:08:34.500Z,13.47
2018-10-11T12:10:38.926Z,13.90
2018-10-11T12:13:00.129Z,16.10
2018-10-11T12:15:04.573Z,16.20
2018-10-11T12:17:08.902Z,22.03
2018-10-11T12:19:13.420Z,21.33
2018-10-11T12:21:17.952Z,13.27
2018-10-11T12:23:22.364Z,15.80
2018-10-11T12:25:27.057Z,15.10
2018-10-11T12:27:31.609Z,14.20
2018-10-11T12:29:35.788Z,16.57
2018-10-11T12:31:40.013Z,16.80
2018-10-11T12:33:44.385Z,12.07
2018-10-11T12:35:48.948Z,12.20
2018-10-11T12:37:53.262Z,14.03
2018-10-11T12:39:57.880Z,17.63
2018-10-11T12:42:02.325Z,12.73
2018-10-11T12:44:10.257Z,11.37
2018-10-11T12:48:43.514Z,14.40
2018-10-11T12:50:47.767Z,12.33
2018-10-11T12:52:52.047Z,13.77
2018-10-11T12:54:56.410Z,11.70
2018-10-11T12:57:00.783Z,14.13
2018-10-11T12:59:05.329Z,15.40
2018-10-11T13:01:09.631Z,18.77
2018-10-11T13:03:13.976Z,14.23
2018-10-11T13:05:18.547Z,12.67
2018-10-11T13:07:22.828Z,10.47
2018-10-11T13:09:27.272Z,9.57
2018-10-11T13:11:31.682Z,9.17
2018-10-11T13:13:36.227Z,11.07
2018-10-11T13:15:40.442Z,7.93
2018-10-11T13:17:44.746Z,12.57
2018-10-11T13:19:49.286Z,9.37
2018-10-11T13:21:53.550Z,11.27
2018-10-11T13:23:57.913Z,13.60
2018-10-11T13:26:02.304Z,9.77
2018-10-11T13:28:06.514Z,14.87
2018-10-11T13:30:10.835Z,16.37
2018-10-11T13:32:15.130Z,11.67
2018-10-11T13:34:19.577Z,14.63
2018-10-11T13:36:23.983Z,18.73
2018-10-11T13:38:28.289Z,9.93
2018-10-11T13:40:32.988Z,15.78
2018-10-11T13:42:37.451Z,17.43
2018-10-11T13:44:41.857Z,18.33
2018-10-11T13:46:46.134Z,8.83
2018-10-11T13:48:50.396Z,14.00
2018-10-11T13:50:54.777Z,15.07
2018-10-11T13:53:00.071Z,10.73
2018-10-11T13:55:09.649Z,10.20
2018-10-11T13:57:08.663Z,11.10
2018-10-11T13:59:14.916Z,11.87
2018-10-11T14:01:18.103Z,11.87
2018-10-11T14:03:22.725Z,19.20
2018-10-11T14:05:27.062Z,16.23
2018-10-11T14:07:31.563Z,11.95
2018-10-11T14:09:35.870Z,10.30
2018-10-11T14:11:40.571Z,17.63
2018-10-11T14:13:44.944Z,9.63
2018-10-11T14:15:49.324Z,16.20
2018-10-11T14:17:53.801Z,10.80
2018-10-11T14:19:59.050Z,9.37
2018-10-11T14:22:03.307Z,9.23
2018-10-11T14:24:07.838Z,9.57
2018-10-11T14:26:12.119Z,8.93
2018-10-11T14:28:16.443Z,9.80
2018-10-11T14:30:20.878Z,14.60
2018-10-11T14:32:25.554Z,9.58
2018-10-11T14:34:29.875Z,6.97
2018-10-11T14:36:34.428Z,9.00
2018-10-11T14:38:38.775Z,13.60
2018-10-11T14:40:43.258Z,15.10
2018-10-11T14:42:48.396Z,10.30
2018-10-11T14:44:52.615Z,14.47
2018-10-11T14:46:56.928Z,10.93
2018-10-11T14:49:01.368Z,11.57
2018-10-11T14:51:05.657Z,9.30
2018-10-11T14:53:10.078Z,7.53
2018-10-11T14:55:14.512Z,13.20
2018-10-11T14:57:18.825Z,11.90
2018-10-11T14:59:23.574Z,11.57
2018-10-11T15:01:28.024Z,10.43
2018-10-11T15:03:32.554Z,11.53
2018-10-11T15:05:36.991Z,12.67
2018-10-11T15:07:41.274Z,7.43
2018-10-11T15:09:46.018Z,8.33
2018-10-11T15:11:50.471Z,10.50
2018-10-11T15:13:54.858Z,11.00
2018-10-11T15:15:59.119Z,8.80
2018-10-11T15:18:03.438Z,8.90
2018-10-11T15:20:07.767Z,10.90
2018-10-11T15:22:12.128Z,10.40
2018-10-11T15:24:16.516Z,9.03
2018-10-11T15:26:20.947Z,17.13
2018-10-11T15:28:25.375Z,17.27
2018-10-11T15:30:29.787Z,12.83
2018-10-11T15:32:34.307Z,13.60
2018-10-11T15:35:08.009Z,8.83
2018-10-11T15:37:12.822Z,12.03
2018-10-11T15:39:17.442Z,13.50
2018-10-11T15:41:21.977Z,17.90
2018-10-11T15:43:26.253Z,11.03
2018-10-11T15:45:30.917Z,10.73
2018-10-11T15:47:35.320Z,9.00
2018-10-11T15:49:39.640Z,11.28
2018-10-11T15:51:44.277Z,13.97
2018-10-11T15:53:48.769Z,23.77
2018-10-11T15:55:53.010Z,15.93
2018-10-11T15:57:57.411Z,7.30
2018-10-11T16:00:01.724Z,12.57
2018-10-11T16:02:06.176Z,12.17
2018-10-11T16:04:10.864Z,9.07
2018-10-11T16:06:15.395Z,9.60
2018-10-11T16:08:19.942Z,11.33
2018-10-11T16:10:24.269Z,9.77
2018-10-11T16:12:28.956Z,16.00
2018-10-11T16:14:33.257Z,13.95
2018-10-11T16:16:37.894Z,13.33
2018-10-11T16:18:42.287Z,10.60
2018-10-11T16:20:46.720Z,20.77
2018-10-11T16:22:50.935Z,11.90
2018-10-11T16:24:55.395Z,11.50
2018-10-11T16:26:59.812Z,14.10
2018-10-11T16:29:04.259Z,12.83
2018-10-11T16:31:08.675Z,10.65
2018-10-11T16:33:12.940Z,15.07
2018-10-11T16:35:17.497Z,10.33
2018-10-11T16:37:21.924Z,12.20
2018-10-11T16:39:26.154Z,10.80
2018-10-11T16:41:30.791Z,10.37
2018-10-11T16:43:35.112Z,9.60
2018-10-11T16:45:39.947Z,13.07
2018-10-11T16:47:44.306Z,12.57
2018-10-11T16:49:48.764Z,12.20
2018-10-11T16:51:53.075Z,15.73
2018-10-11T16:53:57.422Z,14.07
2018-10-11T16:56:01.724Z,11.25
2018-10-11T16:58:06.182Z,14.93
2018-10-11T17:00:10.725Z,12.13
2018-10-11T17:02:15.237Z,13.73
2018-10-11T17:04:19.842Z,14.25
2018-10-11T17:06:24.219Z,12.70
2018-10-11T17:08:28.481Z,17.90
2018-10-11T17:10:32.847Z,13.80
2018-10-11T17:12:37.383Z,11.33
2018-10-11T17:14:41.878Z,15.63
2018-10-11T17:16:46.094Z,16.57
2018-10-11T17:18:50.383Z,12.67
2018-10-11T17:20:54.826Z,17.13
2018-10-11T17:22:59.407Z,15.30
2018-10-11T17:25:03.768Z,14.83
2018-10-11T17:27:08.330Z,15.40
2018-10-11T17:29:12.557Z,12.50
2018-10-11T17:31:16.924Z,11.08
2018-10-11T17:33:21.304Z,12.30
2018-10-11T17:35:25.773Z,11.07
2018-10-11T17:37:30.191Z,13.47
2018-10-11T17:39:34.526Z,10.33
2018-10-11T17:41:39.278Z,14.90
2018-10-11T17:43:43.770Z,12.33
2018-10-11T17:45:48.132Z,8.57
2018-10-11T17:47:52.450Z,11.50
2018-10-11T17:49:57.003Z,12.80
2018-10-11T17:52:01.569Z,14.93
2018-10-11T17:54:06.166Z,22.93
2018-10-11T17:56:10.594Z,17.23
2018-10-11T17:58:15.067Z,9.93
2018-10-11T18:00:19.698Z,9.40
2018-10-11T18:02:24.085Z,11.30
2018-10-11T18:04:29.191Z,10.20
2018-10-11T18:06:34.020Z,11.10
2018-10-11T18:08:38.591Z,11.10
2018-10-11T18:10:42.833Z,9.20
2018-10-11T18:12:47.429Z,15.58
2018-10-11T18:14:52.004Z,12.20
2018-10-11T18:16:56.651Z,12.17
2018-10-11T18:19:01.105Z,10.97
2018-10-11T18:21:05.505Z,16.73
2018-10-11T18:23:10.588Z,12.90
2018-10-11T18:25:14.981Z,9.23
2018-10-11T18:27:19.409Z,12.90
2018-10-11T18:29:24.683Z,11.03
2018-10-11T18:31:29.092Z,13.50
2018-10-11T18:33:33.321Z,13.60
2018-10-11T18:35:37.701Z,10.23
2018-10-11T18:37:41.950Z,15.10
2018-10-11T18:39:46.247Z,11.27
2018-10-11T18:41:50.870Z,13.80
2018-10-11T18:43:55.287Z,15.33
2018-10-11T18:45:59.904Z,16.62
2018-10-11T18:48:04.700Z,15.73
2018-10-11T18:50:09.123Z,11.40
2018-10-11T18:52:13.628Z,12.00
2018-10-11T18:54:18.003Z,22.43
2018-10-11T18:56:22.381Z,10.77
2018-10-11T18:58:26.787Z,15.63
2018-10-11T19:00:31.328Z,11.87
2018-10-11T19:02:35.802Z,14.33
2018-10-11T19:04:40.506Z,15.38
2018-10-11T19:06:44.780Z,13.87
2018-10-11T19:08:49.095Z,14.73
2018-10-11T19:10:53.637Z,12.87
2018-10-11T19:12:58.075Z,12.23
2018-10-11T19:15:02.319Z,12.73
2018-10-11T19:17:06.604Z,18.23
2018-10-11T19:19:10.983Z,16.23
2018-10-11T19:21:15.438Z,13.77
2018-10-11T19:23:20.118Z,17.53
2018-10-11T19:25:25.230Z,13.67
2018-10-11T19:27:29.763Z,10.30
2018-10-11T19:29:34.057Z,12.00
2018-10-11T19:31:38.671Z,13.65
2018-10-11T19:33:42.844Z,10.23
2018-10-11T19:35:47.255Z,13.57
2018-10-11T19:37:51.874Z,12.40
2018-10-11T19:39:56.232Z,15.50
2018-10-11T19:42:00.597Z,14.43
2018-10-11T19:44:04.823Z,19.23
2018-10-11T19:46:09.727Z,16.10
2018-10-11T19:48:14.101Z,13.90
2018-10-11T19:50:18.436Z,13.30
2018-10-11T19:52:22.873Z,13.23
2018-10-11T19:54:27.081Z,12.37
2018-10-11T19:56:31.309Z,12.50
2018-10-11T19:58:35.841Z,16.02
2018-10-11T20:00:40.615Z,18.67
2018-10-11T20:02:45.268Z,13.50
2018-10-11T20:04:50.004Z,14.67
2018-10-11T20:06:54.429Z,16.90
2018-10-11T20:08:59.770Z,14.67
2018-10-11T20:11:04.063Z,14.73
2018-10-11T20:13:08.387Z,18.43
2018-10-11T20:15:12.744Z,27.13
2018-10-11T20:17:20.575Z,15.63
2018-10-11T20:19:24.829Z,16.07
2018-10-11T20:21:29.499Z,16.87
2018-10-11T20:23:33.876Z,16.40
2018-10-11T20:25:43.154Z,20.47
2018-10-11T20:27:47.387Z,14.13
2018-10-11T20:29:51.756Z,18.57
2018-10-11T20:31:56.268Z,16.20
2018-10-11T20:34:00.531Z,19.40
2018-10-11T20:36:04.874Z,15.37
2018-10-11T20:38:09.291Z,16.40
2018-10-11T20:40:13.601Z,22.50
2018-10-11T20:42:18.153Z,18.47
2018-10-11T20:44:22.411Z,15.47
2018-10-11T20:46:26.846Z,20.47
2018-10-11T20:48:31.283Z,20.77
2018-10-11T20:50:35.616Z,18.42
2018-10-11T20:52:40.190Z,20.63
2018-10-11T20:54:45.103Z,20.50
2018-10-11T20:56:49.542Z,25.03
2018-10-11T20:58:54.539Z,16.07
2018-10-11T21:00:59.078Z,18.80
2018-10-11T21:03:03.512Z,19.37
2018-10-11T21:05:07.924Z,16.53
2018-10-11T21:07:12.310Z,17.80
2018-10-11T21:09:16.778Z,20.93
2018-10-11T21:11:21.054Z,16.33
2018-10-11T21:13:25.400Z,17.53
2018-10-11T21:15:29.694Z,23.37
2018-10-11T21:17:34.166Z,18.70
2018-10-11T21:19:38.553Z,17.33
2018-10-11T21:21:42.815Z,19.07
2018-10-11T21:23:47.155Z,15.20
2018-10-11T21:25:51.479Z,16.23
2018-10-11T21:27:55.956Z,16.23
2018-10-11T21:30:00.324Z,24.53
2018-10-11T21:32:04.749Z,17.40
2018-10-11T21:34:09.172Z,37.87
2018-10-11T21:36:13.461Z,17.40
2018-10-11T21:38:17.804Z,22.10
2018-10-11T21:40:22.042Z,20.00
2018-10-11T21:42:26.199Z,30.60
2018-10-11T21:44:30.524Z,18.70
2018-10-11T21:46:34.847Z,17.37
2018-10-11T21:48:39.471Z,19.13
2018-10-11T21:50:43.845Z,21.50
2018-10-11T21:52:48.259Z,19.20
2018-10-11T21:54:52.616Z,19.70
2018-10-11T21:56:56.819Z,19.13
2018-10-11T21:59:01.025Z,28.73
2018-10-11T22:01:10.476Z,24.03
2018-10-11T22:03:14.738Z,18.73
2018-10-11T22:05:19.017Z,21.73
2018-10-11T22:07:23.296Z,20.33
2018-10-11T22:09:27.626Z,21.33
2018-10-11T22:11:31.948Z,24.47
2018-10-11T22:13:36.331Z,26.73
2018-10-11T22:15:40.780Z,20.83
2018-10-11T22:17:45.031Z,21.63
2018-10-11T22:19:49.360Z,22.03
2018-10-11T22:21:53.763Z,28.03
2018-10-11T22:23:58.020Z,23.97
2018-10-11T22:26:02.307Z,30.23
2018-10-11T22:28:06.629Z,17.93
2018-10-11T22:30:11.369Z,23.50
2018-10-11T22:32:15.704Z,20.70
2018-10-11T22:34:19.986Z,22.60
2018-10-11T22:36:24.308Z,29.43
2018-10-11T22:38:28.545Z,22.80
2018-10-11T22:40:32.816Z,28.90
2018-10-11T22:42:37.083Z,22.97
2018-10-11T22:44:41.585Z,26.20
2018-10-11T22:46:45.960Z,19.92
2018-10-11T22:48:50.214Z,18.73
2018-10-11T22:50:54.586Z,21.10
2018-10-11T22:52:59.046Z,19.20
2018-10-11T22:55:03.572Z,22.83
2018-10-11T22:57:08.088Z,23.73
2018-10-11T22:59:12.417Z,22.30
2018-10-11T23:01:16.588Z,19.67
2018-10-11T23:03:20.994Z,24.37
2018-10-11T23:05:25.380Z,18.80
2018-10-11T23:07:29.666Z,22.57
2018-10-11T23:09:33.885Z,31.20
2018-10-11T23:11:38.081Z,18.23
2018-10-11T23:13:42.697Z,24.15
2018-10-11T23:15:47.064Z,17.43
2018-10-11T23:17:51.424Z,28.87
2018-10-11T23:19:55.778Z,22.53
2018-10-11T23:22:00.269Z,23.90
2018-10-11T23:24:04.666Z,28.33
2018-10-11T23:26:09.126Z,21.47
2018-10-11T23:28:13.489Z,19.97
2018-10-11T23:30:17.943Z,20.50
2018-10-11T23:32:22.215Z,26.57
2018-10-11T23:34:26.346Z,24.73
2018-10-11T23:36:30.743Z,28.63
2018-10-11T23:38:35.208Z,22.17
2018-10-11T23:40:39.733Z,24.55
2018-10-11T23:42:44.122Z,20.30
2018-10-11T23:44:48.443Z,21.77
2018-10-11T23:46:52.662Z,17.00
2018-10-11T23:48:57.003Z,21.47
2018-10-11T23:51:01.236Z,22.73
2018-10-11T23:53:05.595Z,23.30
2018-10-11T23:55:10.114Z,21.07
2018-10-11T23:57:14.544Z,31.60
2018-10-11T23:59:18.954Z,19.87
